Time;durP1;ratioP1;P1;durP2;ratioP2;P2;SDS_P1;SDS_P2;PMS_P1;PMS_P2;Temp;Humidity;BMP_temperature;BMP_pressure;BME280_temperature;BME280_humidity;BME280_pressure;Samples;Min_cycle;Max_cycle;Signal;HPM_P1;HPM_P2
2020/12/05 00:00:03;;;;;;;25.83;16.05;;;2.60;99.90;;;;;;5012105;28;20633;-84
2020/12/05 00:02:29;;;;;;;23.80;18.45;;;2.50;99.90;;;;;;5012960;28;20644;-85
2020/12/05 00:04:55;;;;;;;28.60;19.45;;;2.50;99.90;;;;;;5013039;28;20828;-85
2020/12/05 00:07:24;;;;;;;26.67;18.23;;;2.50;99.90;;;;;;5012694;28;20302;-85
2020/12/05 00:09:50;;;;;;;29.92;17.83;;;2.50;99.90;;;;;;5013935;28;20235;-85
2020/12/05 00:12:16;;;;;;;29.13;17.58;;;2.50;99.90;;;;;;5013029;28;20402;-86
2020/12/05 00:14:42;;;;;;;30.77;17.83;;;2.70;99.90;;;;;;5013155;28;20203;-85
2020/12/05 00:17:11;;;;;;;28.85;18.65;;;2.70;99.90;;;;;;5011834;28;20209;-86
2020/12/05 00:19:37;;;;;;;22.73;17.48;;;2.80;99.90;;;;;;5012966;28;20663;-84
2020/12/05 00:22:04;;;;;;;30.83;17.13;;;2.70;99.90;;;;;;5012609;28;20200;-85
2020/12/05 00:24:30;;;;;;;31.30;18.83;;;2.70;99.90;;;;;;5013014;28;20299;-85
2020/12/05 00:26:56;;;;;;;24.17;17.13;;;2.60;99.90;;;;;;5013063;28;20266;-85
2020/12/05 00:29:23;;;;;;;27.10;16.88;;;2.70;99.90;;;;;;5013036;28;20239;-84
2020/12/05 00:31:50;;;;;;;27.13;16.40;;;2.70;99.90;;;;;;5011507;28;20241;-84
2020/12/05 00:34:18;;;;;;;36.28;20.65;;;2.60;99.90;;;;;;5012728;28;20295;-85
2020/12/05 00:36:45;;;;;;;27.40;17.08;;;2.80;99.90;;;;;;5012620;28;20242;-85
2020/12/05 00:39:11;;;;;;;24.98;17.17;;;2.80;99.90;;;;;;5012825;28;20648;-85
2020/12/05 00:41:37;;;;;;;30.40;17.50;;;2.80;99.90;;;;;;5009683;28;20218;-86
2020/12/05 00:44:04;;;;;;;30.58;18.23;;;2.70;99.90;;;;;;5013256;28;20291;-85
2020/12/05 00:46:31;;;;;;;17.50;14.32;;;2.60;99.90;;;;;;5015189;28;20298;-85
2020/12/05 00:48:57;;;;;;;29.40;17.73;;;2.60;99.90;;;;;;5016324;28;20227;-86
2020/12/05 00:51:24;;;;;;;29.10;16.50;;;2.80;99.90;;;;;;5016610;28;20306;-86
2020/12/05 00:53:51;;;;;;;27.58;17.17;;;2.80;99.90;;;;;;5016455;28;20294;-85
2020/12/05 00:56:20;;;;;;;36.47;20.67;;;2.80;99.90;;;;;;5016508;28;20298;-85
2020/12/05 00:58:47;;;;;;;35.85;19.58;;;2.70;99.90;;;;;;5018219;28;20298;-85
2020/12/05 01:01:14;;;;;;;29.10;17.73;;;2.70;99.90;;;;;;5017816;28;20291;-86
2020/12/05 01:03:40;;;;;;;37.30;19.55;;;2.60;99.90;;;;;;5035361;28;20266;-86
2020/12/05 01:06:11;;;;;;;29.75;15.77;;;2.70;99.90;;;;;;5037852;28;20212;-85
2020/12/05 01:08:40;;;;;;;28.17;16.48;;;2.80;99.90;;;;;;5027244;28;20246;-85
2020/12/05 01:11:11;;;;;;;31.38;18.15;;;2.70;99.90;;;;;;5016824;28;20662;-86
2020/12/05 01:13:37;;;;;;;28.23;14.30;;;2.70;99.90;;;;;;5016658;28;20296;-86
2020/12/05 01:16:03;;;;;;;29.48;17.55;;;2.70;99.90;;;;;;5015203;28;20298;-85
2020/12/05 01:18:30;;;;;;;30.23;18.25;;;2.70;99.90;;;;;;5017017;28;20282;-85
2020/12/05 01:20:56;;;;;;;35.38;18.40;;;2.80;99.90;;;;;;5019499;28;20275;-84
2020/12/05 01:23:23;;;;;;;34.30;17.60;;;2.80;99.90;;;;;;5039408;28;20203;-85
2020/12/05 01:25:50;;;;;;;26.15;16.13;;;2.80;99.90;;;;;;5040408;28;20219;-85
2020/12/05 01:28:16;;;;;;;30.58;16.45;;;2.80;99.90;;;;;;5039979;28;20207;-84
2020/12/05 01:30:42;;;;;;;30.75;17.35;;;2.80;99.90;;;;;;5022859;28;20270;-85
2020/12/05 01:33:09;;;;;;;23.63;16.30;;;2.80;99.90;;;;;;5016748;28;20294;-85
2020/12/05 01:35:35;;;;;;;30.20;18.83;;;2.80;99.90;;;;;;5004602;28;20283;-86
2020/12/05 01:38:01;;;;;;;26.65;16.52;;;2.80;99.90;;;;;;4996048;28;20295;-85
2020/12/05 01:40:28;;;;;;;26.27;16.42;;;2.90;99.90;;;;;;4996135;28;20291;-85
2020/12/05 01:42:55;;;;;;;25.77;15.98;;;2.90;99.90;;;;;;4996003;28;20219;-85
2020/12/05 01:45:21;;;;;;;22.55;14.93;;;2.90;99.90;;;;;;4995170;28;20307;-85
2020/12/05 01:47:48;;;;;;;25.02;16.15;;;3.00;99.90;;;;;;4995936;28;20327;-85
2020/12/05 01:50:14;;;;;;;24.92;16.50;;;2.90;99.90;;;;;;4995712;28;20783;-86
2020/12/05 01:52:41;;;;;;;27.60;19.25;;;2.90;99.90;;;;;;4992740;28;20623;-86
2020/12/05 01:55:07;;;;;;;30.73;17.25;;;3.10;99.90;;;;;;4992433;28;20208;-85
2020/12/05 01:57:34;;;;;;;27.60;17.75;;;3.10;99.90;;;;;;4995979;28;20211;-86
2020/12/05 02:00:01;;;;;;;27.35;16.40;;;3.10;99.90;;;;;;4994838;28;20295;-86
2020/12/05 02:02:27;;;;;;;27.83;16.45;;;3.20;99.90;;;;;;4995474;28;20617;-86
2020/12/05 02:05:01;;;;;;;37.60;20.15;;;3.30;99.90;;;;;;5001238;28;20646;-85
2020/12/05 02:07:37;;;;;;;28.70;18.10;;;3.20;99.90;;;;;;5011086;28;20638;-85
2020/12/05 02:10:09;;;;;;;23.15;15.02;;;3.10;99.90;;;;;;5014954;28;20321;-85
2020/12/05 02:12:43;;;;;;;34.63;17.52;;;3.00;99.90;;;;;;5011222;28;20274;-84
2020/12/05 02:15:14;;;;;;;34.40;17.70;;;3.00;99.90;;;;;;5013725;28;20642;-84
2020/12/05 02:17:50;;;;;;;27.50;17.02;;;3.00;99.90;;;;;;5014763;28;20298;-85
2020/12/05 02:20:18;;;;;;;29.05;17.48;;;3.00;99.90;;;;;;5014830;28;20642;-86
2020/12/05 02:22:48;;;;;;;27.08;15.40;;;3.00;99.90;;;;;;5014667;28;20671;-87
2020/12/05 02:25:15;;;;;;;25.33;18.17;;;2.90;99.90;;;;;;5015628;28;20290;-88
2020/12/05 02:27:43;;;;;;;35.40;21.35;;;2.80;99.90;;;;;;5014724;28;20746;-88
2020/12/05 02:30:11;;;;;;;31.65;19.67;;;2.80;99.90;;;;;;5013588;28;20241;-86
2020/12/05 02:32:37;;;;;;;30.33;15.88;;;2.80;99.90;;;;;;5014797;28;20734;-87
2020/12/05 02:35:04;;;;;;;34.95;18.08;;;2.70;99.90;;;;;;5015751;28;20620;-86
2020/12/05 02:37:34;;;;;;;26.05;18.00;;;2.70;99.90;;;;;;5014400;28;20247;-87
2020/12/05 02:40:01;;;;;;;29.20;15.95;;;2.70;99.90;;;;;;5014818;28;20731;-87
2020/12/05 02:42:29;;;;;;;23.40;15.82;;;2.70;99.90;;;;;;5014833;28;20291;-87
2020/12/05 02:44:55;;;;;;;31.90;16.90;;;2.60;99.90;;;;;;5014314;28;20310;-86
2020/12/05 02:47:22;;;;;;;25.27;16.35;;;2.70;99.90;;;;;;5013510;28;20298;-87
2020/12/05 02:49:49;;;;;;;39.78;18.17;;;2.60;99.90;;;;;;5014179;28;20318;-86
2020/12/05 02:52:16;;;;;;;37.22;19.85;;;2.70;99.90;;;;;;5014113;28;20289;-87
2020/12/05 02:54:42;;;;;;;26.08;19.25;;;2.60;99.90;;;;;;5011915;28;20235;-88
2020/12/05 02:57:09;;;;;;;31.95;18.50;;;2.50;99.90;;;;;;5014767;28;20212;-93
2020/12/05 02:59:37;;;;;;;33.72;17.25;;;2.40;99.90;;;;;;5014960;28;20273;-93
2020/12/05 03:02:03;;;;;;;34.45;18.10;;;2.40;99.90;;;;;;5013451;28;20226;-90
2020/12/05 03:04:30;;;;;;;28.10;15.40;;;2.40;99.90;;;;;;5018154;28;20277;-89
2020/12/05 03:06:57;;;;;;;31.33;17.45;;;2.50;99.90;;;;;;5032964;28;20294;-89
2020/12/05 03:09:23;;;;;;;37.80;18.70;;;2.50;99.90;;;;;;5033931;28;20807;-91
2020/12/05 03:11:50;;;;;;;29.65;18.30;;;2.40;99.90;;;;;;5029676;28;20210;-90
2020/12/05 03:14:16;;;;;;;29.83;17.95;;;2.60;99.90;;;;;;5033848;28;20235;-90
2020/12/05 03:16:44;;;;;;;32.75;16.55;;;2.50;99.90;;;;;;5032843;28;20207;-92
2020/12/05 03:19:10;;;;;;;28.92;17.25;;;2.30;99.90;;;;;;5033821;28;20207;-90
2020/12/05 03:21:36;;;;;;;25.25;16.92;;;2.30;99.90;;;;;;5033526;28;20207;-92
2020/12/05 03:24:04;;;;;;;30.85;18.23;;;2.20;99.90;;;;;;5034109;28;20655;-93
2020/12/05 03:26:39;;;;;;;29.70;18.52;;;2.20;99.90;;;;;;5806607;22;20252;-95
2020/12/05 03:29:05;;;;;;;25.38;15.57;;;2.10;99.90;;;;;;5027509;28;20294;-90
2020/12/05 03:31:47;;;;;;;33.50;18.65;;;2.10;99.90;;;;;;5014139;28;20207;-90
2020/12/05 03:34:15;;;;;;;33.78;19.88;;;2.20;99.90;;;;;;5015739;28;20230;-92
2020/12/05 03:36:42;;;;;;;27.60;17.27;;;2.10;99.90;;;;;;5016105;28;20217;-93
2020/12/05 03:39:09;;;;;;;31.92;18.42;;;2.10;99.90;;;;;;5031758;28;20203;-93
2020/12/05 03:41:39;;;;;;;27.70;17.35;;;2.20;99.90;;;;;;5038075;28;20230;-92
2020/12/05 03:44:05;;;;;;;30.08;18.55;;;2.10;99.90;;;;;;5018117;28;20211;-90
2020/12/05 03:46:32;;;;;;;30.92;18.90;;;2.10;99.90;;;;;;5014824;28;20230;-93
2020/12/05 03:49:02;;;;;;;30.90;18.85;;;2.10;99.90;;;;;;5025813;28;20199;-93
2020/12/05 03:51:30;;;;;;;25.48;15.82;;;2.10;99.90;;;;;;5017100;28;20616;-94
2020/12/05 03:53:56;;;;;;;35.85;19.05;;;2.10;99.90;;;;;;5010089;28;20207;-91
2020/12/05 03:56:22;;;;;;;34.17;21.08;;;2.10;99.90;;;;;;5014179;28;20238;-89
2020/12/05 03:58:51;;;;;;;32.70;19.20;;;2.10;99.90;;;;;;5013736;28;20261;-88
2020/12/05 04:01:17;;;;;;;31.90;18.90;;;2.10;99.90;;;;;;5013834;28;20272;-87
2020/12/05 04:03:45;;;;;;;23.17;17.95;;;2.10;99.90;;;;;;5013581;28;20207;-88
2020/12/05 04:06:12;;;;;;;27.65;17.13;;;2.10;99.90;;;;;;5013929;28;20258;-91
2020/12/05 04:08:40;;;;;;;29.77;17.02;;;2.10;99.90;;;;;;5015771;28;20298;-90
2020/12/05 04:11:07;;;;;;;28.90;16.02;;;2.10;99.90;;;;;;5015602;28;20271;-89
2020/12/05 04:13:33;;;;;;;28.55;15.75;;;2.10;99.90;;;;;;5014141;28;20721;-88
2020/12/05 04:16:00;;;;;;;26.23;15.23;;;2.10;99.90;;;;;;5013130;28;20207;-91
2020/12/05 04:18:26;;;;;;;22.88;15.90;;;2.20;99.90;;;;;;5014997;28;20295;-91
2020/12/05 04:20:52;;;;;;;28.40;14.15;;;2.20;99.90;;;;;;5017442;28;20235;-89
2020/12/05 04:23:19;;;;;;;25.35;15.68;;;2.20;99.90;;;;;;5017215;28;20207;-88
2020/12/05 04:25:46;;;;;;;22.98;13.68;;;2.20;99.90;;;;;;5017267;28;20294;-88
2020/12/05 04:28:13;;;;;;;20.90;12.57;;;2.20;99.90;;;;;;5016775;28;20317;-89
2020/12/05 04:30:39;;;;;;;19.27;12.38;;;2.20;99.90;;;;;;5015621;28;20258;-90
2020/12/05 04:33:06;;;;;;;17.55;12.65;;;2.20;99.90;;;;;;5016737;28;20207;-90
2020/12/05 04:35:32;;;;;;;18.60;11.40;;;2.30;99.90;;;;;;5029405;28;20215;-91
2020/12/05 04:37:58;;;;;;;16.85;12.77;;;2.30;99.90;;;;;;5036761;28;20234;-90
2020/12/05 04:40:25;;;;;;;19.95;11.80;;;2.30;99.90;;;;;;5036522;28;20244;-90
2020/12/05 04:42:52;;;;;;;19.17;12.40;;;2.40;99.90;;;;;;5036620;28;20207;-90
2020/12/05 04:45:19;;;;;;;17.55;11.10;;;2.40;99.90;;;;;;5035074;28;21074;-90
2020/12/05 04:47:45;;;;;;;19.13;12.95;;;2.40;99.90;;;;;;5036335;28;20238;-88
2020/12/05 04:50:12;;;;;;;14.02;10.30;;;2.40;99.90;;;;;;5036145;28;20237;-88
2020/12/05 04:52:47;;;;;;;15.10;11.00;;;2.40;99.90;;;;;;5036284;28;20211;-89
2020/12/05 04:55:15;;;;;;;18.30;11.00;;;2.50;99.90;;;;;;5036530;28;20213;-88
2020/12/05 04:57:45;;;;;;;16.38;10.90;;;2.50;99.90;;;;;;5036239;28;20682;-91
2020/12/05 05:00:13;;;;;;;16.38;10.45;;;2.50;99.90;;;;;;5035123;28;20653;-89
2020/12/05 05:02:42;;;;;;;19.02;10.23;;;2.40;99.90;;;;;;5036195;28;20249;-88
2020/12/05 05:05:11;;;;;;;13.55;9.75;;;2.50;99.90;;;;;;5026214;28;20222;-89
2020/12/05 05:07:47;;;;;;;9.43;7.20;;;2.50;99.90;;;;;;5016102;28;20207;-89
2020/12/05 05:10:21;;;;;;;11.50;8.52;;;2.50;99.90;;;;;;5016188;28;20238;-90
2020/12/05 05:12:47;;;;;;;10.20;8.13;;;2.50;99.90;;;;;;5016147;28;20234;-90
2020/12/05 05:15:29;;;;;;;10.45;7.72;;;2.50;99.90;;;;;;5014882;28;20721;-89
2020/12/05 05:18:00;;;;;;;10.80;7.28;;;2.50;99.90;;;;;;5016015;28;20204;-90
2020/12/05 05:20:27;;;;;;;14.07;9.05;;;2.50;99.90;;;;;;5015881;28;20207;-88
2020/12/05 05:23:09;;;;;;;9.20;8.13;;;2.50;99.90;;;;;;5016137;28;20291;-89
2020/12/05 05:25:56;;;;;;;13.27;8.63;;;2.50;99.90;;;;;;5015968;28;20261;-88
2020/12/05 05:28:26;;;;;;;7.88;7.10;;;2.50;99.90;;;;;;5015830;28;20247;-88
2020/12/05 05:31:19;;;;;;;12.02;8.93;;;2.60;99.90;;;;;;5013691;28;20231;-87
2020/12/05 05:33:47;;;;;;;11.02;8.18;;;2.60;99.90;;;;;;5015678;28;20208;-87
2020/12/05 05:36:19;;;;;;;11.52;7.80;;;2.50;99.90;;;;;;5015285;28;20390;-86
2020/12/05 05:38:55;;;;;;;12.48;8.38;;;2.50;99.90;;;;;;5015684;28;20230;-87
2020/12/05 05:41:22;;;;;;;11.85;8.68;;;2.60;99.90;;;;;;5015811;28;20572;-87
2020/12/05 05:43:54;;;;;;;12.52;8.82;;;2.50;99.90;;;;;;5015435;28;20303;-88
2020/12/05 05:46:30;;;;;;;14.68;9.75;;;2.60;99.90;;;;;;5014408;28;20294;-87
2020/12/05 05:48:57;;;;;;;10.50;8.15;;;2.50;99.90;;;;;;5015432;28;20292;-86
2020/12/05 05:51:44;;;;;;;12.70;8.55;;;2.50;99.90;;;;;;5014232;28;20318;-85
2020/12/05 05:54:15;;;;;;;12.80;8.05;;;2.60;99.90;;;;;;5015529;28;20286;-86
2020/12/05 05:57:13;;;;;;;9.85;7.65;;;2.50;99.90;;;;;;5015378;28;20282;-85
2020/12/05 05:59:41;;;;;;;11.20;8.90;;;2.60;99.90;;;;;;4947010;29;20214;-86
2020/12/05 06:02:10;;;;;;;12.95;9.07;;;2.60;99.90;;;;;;5019909;28;20191;-86
2020/12/05 06:04:39;;;;;;;14.50;10.07;;;2.60;99.90;;;;;;5037500;28;20191;-86
2020/12/05 06:07:07;;;;;;;13.70;10.43;;;2.60;99.90;;;;;;5016032;28;20295;-86
2020/12/05 06:09:43;;;;;;;11.75;9.48;;;2.60;99.90;;;;;;5015734;28;20294;-86
2020/12/05 06:12:11;;;;;;;12.65;9.95;;;2.60;99.90;;;;;;5015088;28;20207;-88
2020/12/05 06:14:40;;;;;;;13.65;10.00;;;2.60;99.90;;;;;;5015227;28;20219;-88
2020/12/05 06:17:08;;;;;;;13.50;9.90;;;2.60;99.90;;;;;;5014027;28;20238;-89
2020/12/05 06:19:35;;;;;;;15.88;9.52;;;2.60;99.90;;;;;;5010788;28;20243;-90
2020/12/05 06:22:01;;;;;;;15.43;9.90;;;2.60;99.90;;;;;;5014929;28;20223;-91
2020/12/05 06:24:51;;;;;;;12.88;10.00;;;2.60;99.90;;;;;;5015608;28;20238;-90
2020/12/05 06:27:21;;;;;;;13.40;9.95;;;2.60;99.90;;;;;;5013762;28;20227;-89
2020/12/05 06:29:50;;;;;;;14.93;11.05;;;2.60;99.90;;;;;;5014776;28;20722;-89
2020/12/05 06:32:43;;;;;;;15.55;9.18;;;2.60;99.90;;;;;;5013803;28;20216;-90
2020/12/05 06:35:38;;;;;;;12.57;8.77;;;2.50;99.90;;;;;;5014828;28;20207;-90
2020/12/05 06:38:35;;;;;;;11.95;8.18;;;2.60;99.90;;;;;;5009164;28;20258;-90
2020/12/05 06:42:07;;;;;;;11.25;8.00;;;2.60;99.90;;;;;;5014786;28;20683;-91
2020/12/05 06:44:37;;;;;;;9.25;6.90;;;2.60;99.90;;;;;;4962545;28;20679;-91
2020/12/05 06:47:05;;;;;;;12.50;8.30;;;2.50;99.90;;;;;;5014168;28;20253;-88
2020/12/05 06:49:50;;;;;;;12.63;8.00;;;2.60;99.90;;;;;;5015248;28;20294;-89
2020/12/05 06:52:40;;;;;;;12.18;8.63;;;2.60;99.90;;;;;;5015627;28;20211;-88
2020/12/05 06:55:31;;;;;;;13.45;9.05;;;2.60;99.90;;;;;;5033202;28;20203;-89
2020/12/05 06:58:03;;;;;;;11.52;9.55;;;2.60;99.90;;;;;;5035204;28;20208;-91
2020/12/05 07:00:34;;;;;;;12.35;9.43;;;2.60;99.90;;;;;;5037916;28;20200;-91
2020/12/05 07:03:03;;;;;;;12.52;9.35;;;2.60;99.90;;;;;;5038895;28;20207;-91
2020/12/05 07:05:37;;;;;;;18.08;9.60;;;2.60;99.90;;;;;;5021112;28;20259;-93
2020/12/05 07:08:30;;;;;;;14.15;10.65;;;2.60;99.90;;;;;;5015208;28;20231;-92
2020/12/05 07:10:59;;;;;;;14.82;9.25;;;2.60;99.90;;;;;;5015018;28;20289;-92
2020/12/05 07:13:29;;;;;;;16.88;10.05;;;2.60;99.90;;;;;;5014751;28;20580;-93
2020/12/05 07:16:11;;;;;;;18.00;9.13;;;2.60;99.90;;;;;;5014983;28;20231;-92
2020/12/05 07:18:40;;;;;;;13.65;10.25;;;2.60;99.90;;;;;;5007694;28;20207;-93
2020/12/05 07:21:08;;;;;;;13.35;9.40;;;2.60;99.90;;;;;;5025317;28;20207;-94
2020/12/05 07:23:35;;;;;;;13.32;9.63;;;2.60;99.90;;;;;;5026836;28;20203;-93
2020/12/05 07:26:03;;;;;;;12.85;9.77;;;2.60;99.90;;;;;;5017120;28;20207;-91
2020/12/05 07:28:30;;;;;;;13.75;9.43;;;2.60;99.90;;;;;;5014096;28;20375;-91
2020/12/05 07:30:56;;;;;;;16.02;10.00;;;2.60;99.90;;;;;;5012545;28;20223;-89
2020/12/05 07:33:23;;;;;;;15.55;10.18;;;2.70;99.90;;;;;;5013605;28;20239;-90
2020/12/05 07:36:01;;;;;;;14.95;10.23;;;2.60;99.90;;;;;;5013419;28;20254;-90
2020/12/05 07:38:30;;;;;;;11.80;8.68;;;2.70;99.90;;;;;;5013901;28;20234;-89
2020/12/05 07:40:57;;;;;;;15.55;10.50;;;2.70;99.90;;;;;;5013963;28;20274;-88
2020/12/05 07:43:24;;;;;;;16.35;9.93;;;2.70;99.90;;;;;;5013540;28;20633;-89
2020/12/05 07:45:51;;;;;;;10.68;9.20;;;2.80;99.90;;;;;;5012189;28;20306;-88
2020/12/05 07:48:19;;;;;;;17.40;10.15;;;2.80;99.90;;;;;;5013427;28;20637;-86
2020/12/05 07:50:46;;;;;;;16.85;10.85;;;2.80;99.90;;;;;;5013303;28;20239;-89
2020/12/05 07:53:29;;;;;;;14.10;9.77;;;2.80;99.90;;;;;;5026227;28;20245;-89
2020/12/05 07:55:56;;;;;;;15.70;11.90;;;2.90;99.90;;;;;;5029250;28;20234;-89
2020/12/05 07:58:23;;;;;;;13.13;11.25;;;2.90;99.90;;;;;;5033141;28;20286;-87
2020/12/05 08:00:54;;;;;;;15.52;11.38;;;2.90;99.90;;;;;;5031802;28;20235;-84
2020/12/05 08:03:51;;;;;;;17.10;12.60;;;3.90;99.90;;;;;;5033406;28;20682;-89
2020/12/05 08:06:29;;;;;;;15.57;10.77;;;3.90;99.90;;;;;;5029667;28;20202;-87
2020/12/05 08:09:05;;;;;;;12.68;9.75;;;3.60;99.90;;;;;;5034385;28;20218;-89
2020/12/05 08:11:42;;;;;;;11.30;8.65;;;3.50;99.90;;;;;;5032955;28;20599;-86
2020/12/05 08:14:11;;;;;;;14.98;10.02;;;3.40;99.90;;;;;;5032940;28;20281;-87
2020/12/05 08:16:39;;;;;;;15.05;9.38;;;3.30;99.90;;;;;;5031383;28;20210;-86
2020/12/05 08:19:05;;;;;;;13.30;11.13;;;3.30;99.90;;;;;;5032695;28;20294;-86
2020/12/05 08:21:33;;;;;;;12.13;9.35;;;3.30;99.90;;;;;;5028195;28;20277;-85
2020/12/05 08:24:07;;;;;;;10.48;8.93;;;3.30;99.90;;;;;;5013673;28;20207;-87
2020/12/05 08:26:35;;;;;;;10.70;9.00;;;3.40;99.90;;;;;;5012784;28;20651;-88
2020/12/05 08:29:02;;;;;;;12.73;9.70;;;3.40;99.90;;;;;;5013695;28;20212;-86
2020/12/05 08:31:29;;;;;;;11.75;9.38;;;3.50;99.90;;;;;;5011709;28;20765;-85
2020/12/05 08:33:55;;;;;;;11.55;8.35;;;3.50;99.90;;;;;;5013063;28;20203;-85
2020/12/05 08:36:26;;;;;;;12.65;9.63;;;3.50;99.90;;;;;;5014493;28;20294;-85
2020/12/05 08:38:56;;;;;;;12.35;8.85;;;3.50;99.90;;;;;;5013971;28;20290;-85
2020/12/05 08:41:24;;;;;;;13.50;8.93;;;3.90;99.90;;;;;;5013242;28;20286;-85
2020/12/05 08:43:51;;;;;;;15.70;11.75;;;4.10;99.90;;;;;;5013857;28;20294;-85
2020/12/05 08:46:19;;;;;;;14.13;10.43;;;4.80;99.90;;;;;;5012125;28;20208;-87
2020/12/05 08:48:45;;;;;;;9.57;8.52;;;4.50;99.90;;;;;;5014464;28;20294;-82
2020/12/05 08:51:12;;;;;;;14.20;10.88;;;4.70;99.90;;;;;;5013518;28;20714;-84
2020/12/05 08:53:38;;;;;;;10.40;9.30;;;4.60;99.90;;;;;;5013977;28;20219;-84
2020/12/05 08:56:05;;;;;;;9.57;8.68;;;4.40;99.90;;;;;;5013436;28;20299;-82
2020/12/05 08:58:45;;;;;;;9.02;7.47;;;4.20;99.90;;;;;;5013173;28;20216;-83
2020/12/05 09:01:13;;;;;;;8.27;7.47;;;4.20;99.90;;;;;;5012118;28;20209;-84
2020/12/05 09:03:40;;;;;;;10.20;9.20;;;4.00;99.90;;;;;;5014340;28;20306;-84
2020/12/05 09:06:07;;;;;;;10.25;7.03;;;3.90;99.90;;;;;;5015246;28;20283;-83
2020/12/05 09:08:34;;;;;;;11.27;8.20;;;4.00;99.90;;;;;;5017166;28;20606;-83
2020/12/05 09:11:01;;;;;;;9.95;6.85;;;4.10;99.90;;;;;;5017316;28;20241;-82
2020/12/05 09:13:28;;;;;;;9.95;7.18;;;4.00;99.90;;;;;;5017242;28;20294;-83
2020/12/05 09:15:58;;;;;;;9.43;8.13;;;3.90;99.90;;;;;;5015624;28;20286;-83
2020/12/05 09:18:25;;;;;;;12.85;10.15;;;3.90;99.90;;;;;;5016578;28;20214;-82
2020/12/05 09:20:51;;;;;;;15.30;9.70;;;3.80;99.90;;;;;;5015916;28;20211;-82
2020/12/05 09:23:27;;;;;;;13.57;9.88;;;3.70;99.90;;;;;;5015594;28;20218;-82
2020/12/05 09:26:01;;;;;;;17.52;11.52;;;3.70;99.90;;;;;;4981419;28;20207;-83
2020/12/05 09:28:27;;;;;;;12.70;10.63;;;3.80;99.90;;;;;;5015544;28;20237;-84
2020/12/05 09:30:55;;;;;;;13.32;9.18;;;3.90;99.90;;;;;;5014417;28;20235;-84
2020/12/05 09:33:22;;;;;;;15.27;9.77;;;4.00;99.90;;;;;;5015815;28;20212;-84
2020/12/05 09:35:49;;;;;;;13.13;10.15;;;4.10;99.90;;;;;;5015720;28;20239;-85
2020/12/05 09:38:16;;;;;;;15.15;8.85;;;4.20;99.90;;;;;;5015220;28;20442;-83
2020/12/05 09:40:42;;;;;;;12.30;8.38;;;4.30;99.90;;;;;;5017412;28;20214;-85
2020/12/05 09:43:09;;;;;;;9.43;8.23;;;4.50;99.90;;;;;;5016203;28;20242;-83
2020/12/05 09:45:35;;;;;;;8.70;7.80;;;4.60;99.90;;;;;;5014994;28;20208;-84
2020/12/05 09:48:04;;;;;;;11.75;8.00;;;4.60;99.90;;;;;;5013160;28;20208;-85
2020/12/05 09:50:31;;;;;;;12.38;7.60;;;4.60;99.90;;;;;;5015695;28;20235;-83
2020/12/05 09:52:59;;;;;;;8.55;7.50;;;4.70;99.90;;;;;;5014364;28;20207;-85
2020/12/05 09:55:25;;;;;;;6.63;5.93;;;4.70;99.90;;;;;;5012359;28;20298;-85
2020/12/05 09:57:52;;;;;;;8.25;7.50;;;4.70;99.90;;;;;;5014248;28;20239;-86
2020/12/05 10:00:18;;;;;;;9.65;6.07;;;4.60;99.90;;;;;;5014093;28;20203;-85
2020/12/05 10:02:45;;;;;;;8.40;6.75;;;4.50;99.90;;;;;;5013777;28;20637;-85
2020/12/05 10:05:12;;;;;;;13.48;8.60;;;4.30;99.90;;;;;;5014815;28;20641;-85
2020/12/05 10:07:39;;;;;;;14.80;10.38;;;4.30;99.90;;;;;;5014363;28;20294;-85
2020/12/05 10:10:07;;;;;;;13.50;10.52;;;4.30;99.90;;;;;;5014247;28;20681;-85
2020/12/05 10:12:34;;;;;;;13.15;10.30;;;4.20;99.90;;;;;;5014428;28;20337;-87
2020/12/05 10:15:01;;;;;;;14.98;10.90;;;4.30;99.90;;;;;;5013304;28;20231;-87
2020/12/05 10:17:28;;;;;;;18.15;11.45;;;4.20;99.90;;;;;;5013497;28;20576;-86
2020/12/05 10:19:55;;;;;;;15.55;10.60;;;4.20;99.90;;;;;;5012152;28;20205;-87
2020/12/05 10:22:22;;;;;;;15.68;10.60;;;4.20;99.90;;;;;;5012747;28;20234;-88
2020/12/05 10:24:49;;;;;;;15.20;10.43;;;4.10;99.90;;;;;;5013494;28;20310;-87
2020/12/05 10:27:15;;;;;;;17.88;12.30;;;4.20;99.90;;;;;;5014301;28;20242;-88
2020/12/05 10:29:42;;;;;;;16.48;12.23;;;4.30;99.90;;;;;;5014017;28;20632;-89
2020/12/05 10:32:08;;;;;;;18.23;13.70;;;4.40;99.90;;;;;;5013287;28;20322;-89
2020/12/05 10:34:35;;;;;;;12.75;11.02;;;4.40;99.90;;;;;;5013978;28;20615;-89
2020/12/05 10:37:02;;;;;;;16.05;11.65;;;4.40;99.90;;;;;;5013431;28;20208;-89
2020/12/05 10:39:29;;;;;;;15.82;10.80;;;4.50;99.90;;;;;;5014158;28;20362;-86
2020/12/05 10:41:55;;;;;;;14.80;11.65;;;4.50;99.90;;;;;;5014011;28;20453;-86
2020/12/05 10:44:22;;;;;;;10.23;9.18;;;4.50;99.90;;;;;;5014285;28;20283;-86
2020/12/05 10:46:49;;;;;;;12.32;9.07;;;4.50;99.90;;;;;;5014098;28;20203;-85
2020/12/05 10:49:16;;;;;;;11.20;9.77;;;4.30;99.90;;;;;;5013699;28;20207;-85
2020/12/05 10:51:43;;;;;;;16.05;9.63;;;4.30;99.90;;;;;;5018597;28;20225;-85
2020/12/05 10:54:09;;;;;;;12.48;9.40;;;4.30;99.90;;;;;;5036381;28;20214;-84
2020/12/05 10:56:39;;;;;;;14.68;10.00;;;4.20;99.90;;;;;;5037081;28;20203;-83
2020/12/05 10:59:05;;;;;;;17.42;11.55;;;4.20;99.90;;;;;;5019581;28;20275;-84
2020/12/05 11:01:31;;;;;;;15.10;11.20;;;4.20;99.90;;;;;;5012490;28;20445;-84
2020/12/05 11:03:58;;;;;;;12.43;10.80;;;4.20;99.90;;;;;;5012877;28;20203;-85
2020/12/05 11:06:26;;;;;;;14.35;9.88;;;4.10;99.90;;;;;;5014027;28;20306;-85
2020/12/05 11:08:53;;;;;;;13.07;11.40;;;4.10;99.90;;;;;;5016912;28;20199;-85
2020/12/05 11:11:33;;;;;;;12.60;10.68;;;4.20;99.90;;;;;;5018960;28;20231;-86
2020/12/05 11:14:00;;;;;;;10.60;9.43;;;4.20;99.90;;;;;;5014967;28;20221;-86
2020/12/05 11:16:27;;;;;;;10.82;9.60;;;4.30;99.90;;;;;;5014458;28;20223;-87
2020/12/05 11:18:53;;;;;;;13.02;10.82;;;4.30;99.90;;;;;;5012931;28;20207;-89
2020/12/05 11:21:35;;;;;;;14.02;10.35;;;4.20;99.90;;;;;;5015967;28;20303;-89
2020/12/05 11:24:01;;;;;;;24.25;15.88;;;4.30;99.90;;;;;;5014271;28;20290;-89
2020/12/05 11:26:27;;;;;;;24.92;16.42;;;4.40;99.90;;;;;;5013533;28;20294;-87
2020/12/05 11:28:54;;;;;;;27.77;15.88;;;4.60;99.90;;;;;;5012793;28;20312;-90
2020/12/05 11:31:29;;;;;;;25.08;14.30;;;4.60;99.90;;;;;;5014030;28;20262;-87
2020/12/05 11:34:13;;;;;;;20.00;15.18;;;4.60;99.90;;;;;;5016640;28;20234;-88
2020/12/05 11:36:43;;;;;;;21.08;15.50;;;4.80;99.90;;;;;;4993920;28;20246;-88
2020/12/05 11:39:09;;;;;;;20.42;14.32;;;4.90;99.90;;;;;;4993783;28;20568;-86
2020/12/05 11:41:35;;;;;;;19.58;13.95;;;5.00;99.90;;;;;;4993834;28;20219;-85
2020/12/05 11:44:03;;;;;;;15.40;11.32;;;5.00;99.90;;;;;;4998188;28;20208;-86
2020/12/05 11:46:35;;;;;;;10.52;9.00;;;5.00;99.90;;;;;;4993203;28;20220;-88
2020/12/05 11:49:02;;;;;;;9.38;8.20;;;5.10;99.90;;;;;;4994368;28;20208;-87
2020/12/05 11:51:29;;;;;;;8.43;5.85;;;5.10;99.90;;;;;;4993583;28;20281;-87
2020/12/05 11:53:56;;;;;;;5.88;4.93;;;5.20;99.90;;;;;;4994041;28;20235;-87
2020/12/05 11:56:22;;;;;;;6.18;5.53;;;5.20;99.90;;;;;;4994479;28;20208;-87
2020/12/05 11:58:49;;;;;;;7.68;6.72;;;5.30;99.90;;;;;;5003708;28;20275;-86
2020/12/05 12:01:15;;;;;;;11.82;8.15;;;5.30;99.90;;;;;;5014620;28;20258;-85
2020/12/05 12:03:42;;;;;;;11.52;8.00;;;5.30;99.90;;;;;;5017065;28;20278;-85
2020/12/05 12:06:14;;;;;;;10.75;7.47;;;5.20;99.90;;;;;;5028232;28;20211;-87
2020/12/05 12:08:40;;;;;;;13.48;9.82;;;5.00;99.90;;;;;;5014051;28;20213;-82
2020/12/05 12:11:06;;;;;;;10.48;7.22;;;5.00;99.90;;;;;;5013773;28;20695;-85
2020/12/05 12:13:33;;;;;;;9.63;7.80;;;5.00;99.90;;;;;;5012979;28;20754;-85
2020/12/05 12:15:59;;;;;;;13.13;9.30;;;4.90;99.90;;;;;;5011749;28;20203;-84
2020/12/05 12:18:25;;;;;;;13.20;11.02;;;4.90;99.90;;;;;;5012946;28;20203;-85
2020/12/05 12:20:52;;;;;;;13.70;10.18;;;4.90;99.90;;;;;;5012617;28;20659;-83
2020/12/05 12:23:19;;;;;;;12.07;10.18;;;4.90;99.90;;;;;;5012692;28;20331;-84
2020/12/05 12:25:46;;;;;;;11.60;9.82;;;4.90;99.90;;;;;;5013341;28;20254;-87
2020/12/05 12:28:12;;;;;;;15.07;11.50;;;4.90;99.90;;;;;;5012699;28;20235;-84
2020/12/05 12:30:39;;;;;;;16.02;11.02;;;4.80;99.90;;;;;;5011571;28;20231;-84
2020/12/05 12:33:06;;;;;;;12.32;8.43;;;4.90;99.90;;;;;;5012905;28;20207;-86
2020/12/05 12:35:32;;;;;;;14.20;10.40;;;5.00;99.90;;;;;;5013615;28;20298;-84
2020/12/05 12:37:59;;;;;;;11.20;8.90;;;5.00;99.90;;;;;;5012690;28;20239;-83
2020/12/05 12:40:26;;;;;;;7.78;5.85;;;5.00;99.90;;;;;;5015429;28;20298;-86
2020/12/05 12:42:52;;;;;;;8.82;6.25;;;5.10;99.90;;;;;;5016395;28;20667;-85
2020/12/05 12:45:27;;;;;;;6.95;6.10;;;5.10;99.90;;;;;;5015098;28;20303;-85
2020/12/05 12:48:36;;;;;;;6.20;5.70;;;5.10;99.90;;;;;;5016506;28;20239;-84
2020/12/05 12:50:44;;;;;;;10.35;6.80;;;5.10;99.90;;;;;;5015905;28;20672;-84